Time;durP1;ratioP1;P1;durP2;ratioP2;P2;SDS_P1;SDS_P2;PMS_P1;PMS_P2;Temp;Humidity;BMP_temperature;BMP_pressure;BME280_temperature;BME280_humidity;BME280_pressure;Samples;Min_cycle;Max_cycle;Signal;HPM_P1;HPM_P2
2022/11/04 00:01:32;;;;;;;0.73;0.73;;;;;;;9.83;88.05;99277.16;5112553;28;20208;-57
2022/11/04 00:03:59;;;;;;;0.73;0.73;;;;;;;9.94;87.72;99278.97;5112456;28;20214;-58
2022/11/04 00:06:27;;;;;;;2.07;0.87;;;;;;;10.01;87.32;99285.34;5112486;28;20399;-57
2022/11/04 00:08:56;;;;;;;0.63;0.63;;;;;;;10.14;86.61;99270.81;5112282;27;20685;-57
2022/11/04 00:14:09;;;;;;;1.20;0.73;;;;;;;10.17;86.58;99275.69;5111959;28;20472;-62
2022/11/04 00:19:21;;;;;;;0.43;0.40;;;;;;;10.34;85.78;99276.34;5112314;28;20346;-63
2022/11/04 00:30:08;;;;;;;0.53;0.53;;;;;;;10.22;87.01;99279.69;5112025;28;20236;-58
2022/11/04 00:35:21;;;;;;;1.53;1.33;;;;;;;10.14;86.55;99281.03;5093533;28;20224;-57
2022/11/04 00:37:49;;;;;;;0.83;0.83;;;;;;;10.14;87.30;99285.31;5111865;28;20204;-63
2022/11/04 00:40:17;;;;;;;1.47;1.27;;;;;;;10.23;86.74;99282.13;5111754;28;20213;-63
2022/11/04 00:42:45;;;;;;;0.90;0.90;;;;;;;10.25;86.46;99277.75;5111873;28;20654;-58
2022/11/04 00:45:12;;;;;;;1.27;0.53;;;;;;;10.23;86.70;99271.09;5111497;28;20679;-63
2022/11/04 00:47:39;;;;;;;1.67;1.07;;;;;;;10.08;87.93;99268.66;5111636;28;20224;-62
2022/11/04 00:50:07;;;;;;;2.47;0.80;;;;;;;10.08;88.77;99260.19;5111687;27;20346;-63
2022/11/04 00:52:34;;;;;;;1.03;0.90;;;;;;;10.11;88.56;99260.78;5111618;28;20201;-57
2022/11/04 00:55:02;;;;;;;1.20;0.50;;;;;;;10.18;87.85;99262.03;5111599;28;20221;-62
2022/11/04 00:57:29;;;;;;;0.63;0.63;;;;;;;10.01;87.34;99257.25;5111563;28;20564;-63
2022/11/04 00:59:55;;;;;;;0.57;0.37;;;;;;;9.99;88.79;99256.50;5111619;28;20646;-57
2022/11/04 01:02:22;;;;;;;1.13;0.77;;;;;;;9.98;88.70;99257.44;5111438;28;20634;-58
2022/11/04 01:04:49;;;;;;;1.13;1.03;;;;;;;9.98;88.97;99260.00;5111180;28;20311;-57
2022/11/04 01:07:16;;;;;;;0.60;0.60;;;;;;;9.94;88.76;99253.44;5111329;28;20189;-58
2022/11/04 01:09:42;;;;;;;2.10;1.23;;;;;;;9.84;89.85;99257.53;5111117;28;20236;-61
2022/11/04 01:12:11;;;;;;;0.30;0.30;;;;;;;9.92;90.21;99235.69;5111602;28;20254;-58
2022/11/04 01:14:37;;;;;;;0.30;0.30;;;;;;;9.94;90.06;99233.81;5110841;28;20274;-57
2022/11/04 01:17:04;;;;;;;0.83;0.73;;;;;;;9.94;90.07;99228.72;5110807;28;20204;-63
2022/11/04 01:19:31;;;;;;;1.07;0.60;;;;;;;10.01;90.27;99229.13;5110860;27;20229;-63
2022/11/04 01:21:58;;;;;;;0.73;0.73;;;;;;;10.14;89.57;99227.38;5110994;28;20204;-57
2022/11/04 01:24:24;;;;;;;1.17;1.03;;;;;;;10.23;88.69;99227.66;5109857;28;20232;-57
2022/11/04 01:26:51;;;;;;;1.67;1.53;;;;;;;10.09;88.35;99221.75;5110997;28;20274;-57
2022/11/04 01:29:19;;;;;;;1.10;0.67;;;;;;;10.10;88.30;99220.84;5110896;28;20593;-62
2022/11/04 01:31:46;;;;;;;0.40;0.40;;;;;;;10.08;89.17;99220.13;5110868;28;20193;-57
2022/11/04 01:34:13;;;;;;;0.70;0.70;;;;;;;10.13;89.40;99215.53;5110838;28;20610;-57
2022/11/04 01:36:39;;;;;;;1.40;1.30;;;;;;;10.18;88.85;99215.19;5110689;28;20591;-58
2022/11/04 01:39:06;;;;;;;1.00;0.97;;;;;;;10.15;88.88;99215.41;5110657;28;20229;-63
2022/11/04 01:41:34;;;;;;;1.03;0.77;;;;;;;10.24;88.34;99213.97;5110678;28;20193;-62
2022/11/04 01:44:03;;;;;;;1.67;1.10;;;;;;;10.19;88.70;99209.19;5111064;28;20675;-63
2022/11/04 01:46:37;;;;;;;0.70;0.70;;;;;;;10.29;88.55;99196.59;5110461;28;20201;-58
2022/11/04 01:49:17;;;;;;;1.00;0.93;;;;;;;10.28;87.99;99195.00;5110718;28;20608;-58
2022/11/04 01:51:46;;;;;;;0.77;0.77;;;;;;;10.26;87.45;99196.78;5110628;28;20197;-57
2022/11/04 01:54:13;;;;;;;0.70;0.50;;;;;;;10.27;87.15;99190.78;5110326;28;20213;-58
2022/11/04 01:56:42;;;;;;;0.80;0.80;;;;;;;10.30;86.95;99203.38;5110315;28;20208;-58
2022/11/04 01:59:14;;;;;;;0.60;0.60;;;;;;;10.32;86.83;99192.09;5110456;28;20225;-57
2022/11/04 02:01:43;;;;;;;0.30;0.30;;;;;;;10.34;86.59;99192.00;5110204;28;20189;-63
2022/11/04 02:04:28;;;;;;;0.60;0.60;;;;;;;10.33;86.44;99192.94;5110202;28;20229;-58
2022/11/04 02:06:57;;;;;;;0.50;0.50;;;;;;;10.28;86.41;99195.00;5110064;28;20197;-57
2022/11/04 02:09:27;;;;;;;0.57;0.57;;;;;;;10.30;86.70;99188.84;5109772;28;20232;-58
2022/11/04 02:14:40;;;;;;;0.97;0.97;;;;;;;10.15;86.54;99180.47;5109885;28;20370;-63
2022/11/04 02:17:22;;;;;;;1.07;0.97;;;;;;;10.18;87.64;99185.38;5109931;28;20200;-57
2022/11/04 02:20:07;;;;;;;1.57;1.47;;;;;;;10.13;88.38;99191.72;5110266;28;20750;-63
2022/11/04 02:23:01;;;;;;;0.47;0.47;;;;;;;10.08;89.55;99184.34;5110006;28;20197;-62
2022/11/04 02:25:46;;;;;;;0.77;0.77;;;;;;;10.01;90.00;99178.06;5109671;28;20216;-57
2022/11/04 02:28:32;;;;;;;0.57;0.57;;;;;;;10.05;89.44;99171.00;5110119;28;20197;-63
2022/11/04 02:31:09;;;;;;;1.77;1.03;;;;;;;10.15;88.48;99170.25;5109619;28;20606;-57
2022/11/04 02:33:43;;;;;;;0.93;0.63;;;;;;;10.15;88.50;99171.97;5109941;28;20216;-57
2022/11/04 02:36:19;;;;;;;0.60;0.50;;;;;;;10.08;88.36;99169.03;5111416;28;20566;-63
2022/11/04 02:38:53;;;;;;;0.97;0.90;;;;;;;9.99;88.49;99169.66;5113987;28;20261;-63
2022/11/04 02:41:33;;;;;;;1.60;1.17;;;;;;;9.94;88.47;99156.38;5113702;28;20236;-63
2022/11/04 02:44:08;;;;;;;1.30;0.90;;;;;;;9.92;88.85;99153.97;5113890;28;20220;-63
2022/11/04 02:46:40;;;;;;;1.67;1.20;;;;;;;9.91;89.22;99141.28;5114145;28;20257;-63
2022/11/04 02:49:12;;;;;;;1.20;1.07;;;;;;;9.85;89.49;99149.38;5113799;28;20274;-63
2022/11/04 02:51:45;;;;;;;0.80;0.80;;;;;;;9.75;90.30;99147.44;5113306;28;20294;-57
2022/11/04 02:54:18;;;;;;;1.00;1.00;;;;;;;9.81;91.15;99145.41;5113451;28;20774;-62
2022/11/04 02:56:48;;;;;;;0.60;0.60;;;;;;;9.84;90.78;99140.09;5113883;28;20205;-57
2022/11/04 02:59:21;;;;;;;1.57;0.97;;;;;;;9.98;90.42;99142.50;5113703;28;20223;-63
2022/11/04 03:01:52;;;;;;;0.93;0.93;;;;;;;9.97;89.46;99151.06;5113643;28;20196;-57
2022/11/04 03:04:26;;;;;;;1.40;1.30;;;;;;;9.98;89.18;99152.72;5113438;28;20261;-58
2022/11/04 03:06:57;;;;;;;0.43;0.43;;;;;;;9.94;88.72;99161.50;5113415;28;20211;-58
2022/11/04 03:09:27;;;;;;;1.60;1.30;;;;;;;9.95;88.39;99160.59;5113409;28;20647;-63
2022/11/04 03:12:00;;;;;;;1.27;1.17;;;;;;;9.97;88.09;99167.22;5113358;28;20197;-63
2022/11/04 03:14:32;;;;;;;0.87;0.87;;;;;;;9.95;87.91;99163.16;5113120;28;20244;-63
2022/11/04 03:17:05;;;;;;;1.60;1.03;;;;;;;9.94;88.01;99161.50;5113187;28;20196;-63
2022/11/04 03:19:41;;;;;;;1.00;0.80;;;;;;;9.98;87.74;99153.53;5113166;28;20221;-57
2022/11/04 03:22:13;;;;;;;2.00;0.60;;;;;;;9.96;87.64;99159.66;5113159;28;20196;-63
2022/11/04 03:24:40;;;;;;;0.50;0.47;;;;;;;9.96;87.90;99165.59;5113007;28;20224;-63
2022/11/04 03:27:18;;;;;;;1.80;1.07;;;;;;;9.90;87.54;99160.09;5113004;28;20216;-57
2022/11/04 03:29:53;;;;;;;1.07;0.97;;;;;;;9.86;88.03;99161.19;5112868;28;20225;-57
2022/11/04 03:32:25;;;;;;;2.47;1.00;;;;;;;9.78;88.44;99158.38;5112915;28;20201;-63
2022/11/04 03:34:52;;;;;;;2.43;1.00;;;;;;;9.77;88.38;99159.28;5112755;28;20781;-63
2022/11/04 03:37:19;;;;;;;0.73;0.53;;;;;;;9.70;88.19;99154.59;5112948;28;20681;-62
2022/11/04 03:39:47;;;;;;;0.50;0.50;;;;;;;9.62;88.68;99150.91;5112826;28;20282;-63
2022/11/04 03:42:20;;;;;;;0.93;0.93;;;;;;;9.56;89.17;99152.16;5112778;28;20205;-57
2022/11/04 03:44:49;;;;;;;1.50;1.03;;;;;;;9.64;88.95;99151.63;5113091;28;20221;-63
2022/11/04 03:47:18;;;;;;;1.07;0.90;;;;;;;9.66;88.59;99158.28;5111743;28;20288;-57
2022/11/04 03:49:48;;;;;;;1.60;0.80;;;;;;;9.68;88.49;99156.41;5112453;28;20240;-62
2022/11/04 03:52:17;;;;;;;1.03;0.90;;;;;;;9.77;88.21;99154.16;5112696;27;20642;-63
2022/11/04 03:54:44;;;;;;;0.77;0.77;;;;;;;9.78;87.77;99160.94;5112247;28;20217;-58
2022/11/04 03:57:30;;;;;;;0.50;0.50;;;;;;;9.80;87.80;99151.41;5112415;28;20246;-63
2022/11/04 04:00:07;;;;;;;1.13;1.03;;;;;;;9.71;87.96;99146.00;5112085;28;20732;-57
2022/11/04 04:02:44;;;;;;;1.50;0.93;;;;;;;9.71;87.88;99156.22;5112129;28;20201;-57
2022/11/04 04:05:20;;;;;;;1.03;0.90;;;;;;;9.69;87.90;99142.75;5112375;28;20217;-57
2022/11/04 04:07:52;;;;;;;1.13;1.10;;;;;;;9.65;87.73;99136.19;5112224;27;20204;-58
2022/11/04 04:10:41;;;;;;;1.13;1.03;;;;;;;9.53;87.57;99134.47;5112072;28;20297;-57
2022/11/04 04:13:21;;;;;;;1.27;0.97;;;;;;;9.35;88.45;99133.16;5111980;28;20721;-62
2022/11/04 04:15:54;;;;;;;1.57;0.80;;;;;;;9.34;88.61;99136.63;5112090;28;20217;-57
2022/11/04 04:18:30;;;;;;;2.23;1.37;;;;;;;9.39;88.47;99144.78;5112003;28;20669;-63
2022/11/04 04:21:01;;;;;;;0.20;0.20;;;;;;;9.40;88.66;99142.16;5111856;28;20213;-57
2022/11/04 04:29:07;;;;;;;0.97;0.60;;;;;;;9.36;88.16;99139.91;5112089;28;20308;-57
2022/11/04 04:31:52;;;;;;;1.93;1.33;;;;;;;9.08;89.34;99134.06;5111771;28;20252;-63
2022/11/04 04:34:22;;;;;;;0.93;0.87;;;;;;;9.15;89.84;99137.84;5111623;28;20227;-63
2022/11/04 04:36:54;;;;;;;2.93;1.30;;;;;;;9.17;89.03;99136.03;5111723;28;20663;-57
2022/11/04 04:45:02;;;;;;;1.63;1.53;;;;;;;9.17;89.47;99141.13;5111434;28;20265;-57
2022/11/04 04:47:35;;;;;;;10.40;6.07;;;;;;;9.18;89.47;99141.94;5111375;28;20204;-63
2022/11/04 04:50:02;;;;;;;6.33;3.43;;;;;;;9.16;89.32;99133.56;5111479;28;20318;-57
2022/11/04 04:52:33;;;;;;;4.57;3.37;;;;;;;9.17;89.36;99141.13;5111391;28;20200;-57
2022/11/04 04:55:00;;;;;;;5.40;3.30;;;;;;;9.19;89.25;99139.28;5111282;28;20232;-62
2022/11/04 04:57:27;;;;;;;5.03;2.53;;;;;;;9.15;89.23;99142.94;5111233;28;20709;-57
2022/11/04 04:59:54;;;;;;;3.90;3.50;;;;;;;9.20;89.11;99135.81;5110824;28;20220;-57
2022/11/04 05:02:20;;;;;;;6.17;5.23;;;;;;;9.17;89.41;99136.03;5111162;28;20243;-63
2022/11/04 05:04:47;;;;;;;8.00;5.43;;;;;;;9.12;89.35;99132.94;5111328;28;20645;-63
2022/11/04 05:07:14;;;;;;;5.03;4.63;;;;;;;9.16;89.57;99136.94;5111098;28;20700;-63
2022/11/04 05:09:42;;;;;;;2.80;2.43;;;;;;;9.24;89.80;99136.41;5111204;27;20221;-62
2022/11/04 05:12:10;;;;;;;2.30;1.40;;;;;;;9.23;89.56;99130.50;5110785;28;20240;-63
2022/11/04 05:14:37;;;;;;;2.13;1.93;;;;;;;9.20;89.60;99133.25;5110965;27;20213;-59
2022/11/04 05:17:04;;;;;;;7.40;4.13;;;;;;;9.19;89.63;99134.19;5110836;27;20224;-63
2022/11/04 05:19:31;;;;;;;11.33;7.20;;;;;;;9.11;89.99;99128.78;5110977;28;20689;-63
2022/11/04 05:21:58;;;;;;;1.73;1.63;;;;;;;9.17;90.36;99135.19;5110992;28;20200;-63
2022/11/04 05:24:25;;;;;;;2.63;1.77;;;;;;;9.24;89.91;99134.69;5110924;28;20628;-57
2022/11/04 05:26:53;;;;;;;1.03;0.80;;;;;;;9.37;90.44;99133.91;5110616;28;20665;-63
2022/11/04 05:29:20;;;;;;;1.33;1.23;;;;;;;9.36;90.24;99139.91;5110740;28;20282;-58
2022/11/04 05:31:47;;;;;;;1.43;1.33;;;;;;;9.34;90.08;99141.72;5110420;28;20224;-63
2022/11/04 05:34:14;;;;;;;1.70;1.30;;;;;;;9.37;89.96;99142.34;5110267;27;20240;-58
2022/11/04 05:36:41;;;;;;;1.03;0.77;;;;;;;9.38;90.40;99143.16;5110380;28;20193;-56
2022/11/04 05:39:08;;;;;;;1.80;1.67;;;;;;;9.56;90.27;99141.94;5110621;28;20225;-62
2022/11/04 05:41:34;;;;;;;2.77;0.83;;;;;;;9.61;89.59;99149.28;5110427;28;20200;-57
2022/11/04 05:44:05;;;;;;;0.93;0.90;;;;;;;9.61;89.68;99154.41;5110824;28;20221;-62
2022/11/04 05:46:32;;;;;;;1.20;0.57;;;;;;;9.65;89.54;99156.63;5110475;28;20197;-57
2022/11/04 05:48:58;;;;;;;1.40;1.23;;;;;;;9.67;89.69;99159.09;5110284;28;20216;-63
2022/11/04 05:51:27;;;;;;;1.40;1.13;;;;;;;9.72;89.65;99145.09;5110194;28;20217;-63
2022/11/04 05:53:54;;;;;;;2.07;1.20;;;;;;;9.82;89.31;99147.84;5110295;28;20209;-57
2022/11/04 05:56:21;;;;;;;0.87;0.87;;;;;;;9.92;88.63;99151.41;5109955;28;20204;-63
2022/11/04 05:58:48;;;;;;;0.70;0.70;;;;;;;9.97;88.78;99151.06;5110205;28;20193;-63
2022/11/04 06:01:27;;;;;;;1.43;1.03;;;;;;;10.08;88.63;99143.50;5110219;28;20216;-58
2022/11/04 06:03:54;;;;;;;0.63;0.63;;;;;;;10.24;88.39;99157.75;5109871;28;20204;-63
2022/11/04 06:06:22;;;;;;;2.10;1.60;;;;;;;10.34;88.15;99164.69;5110334;28;20611;-62
2022/11/04 06:08:50;;;;;;;0.70;0.70;;;;;;;10.46;88.01;99165.59;5109837;28;20193;-57
2022/11/04 06:11:17;;;;;;;1.33;1.00;;;;;;;10.58;87.89;99157.03;5109446;28;20441;-58
2022/11/04 06:13:44;;;;;;;0.90;0.90;;;;;;;10.67;87.30;99162.44;5110064;28;20193;-57
2022/11/04 06:16:10;;;;;;;3.60;1.37;;;;;;;10.90;87.62;99166.69;5109980;28;20204;-63
2022/11/04 06:18:39;;;;;;;3.57;1.27;;;;;;;11.12;86.84;99171.09;5109543;28;20201;-58
2022/11/04 06:21:11;;;;;;;1.07;1.03;;;;;;;11.28;86.11;99163.09;5109912;28;20204;-57
2022/11/04 06:23:37;;;;;;;0.50;0.50;;;;;;;11.50;85.93;99170.00;5109746;28;20639;-63
2022/11/04 06:26:04;;;;;;;0.90;0.77;;;;;;;11.87;84.92;99168.06;5109862;28;20193;-57
2022/11/04 06:28:31;;;;;;;1.23;1.10;;;;;;;12.13;83.76;99172.94;5110152;28;20592;-63
2022/11/04 06:31:00;;;;;;;1.80;1.33;;;;;;;12.39;82.68;99168.34;5109616;28;20253;-57
2022/11/04 06:33:27;;;;;;;1.50;0.83;;;;;;;12.68;80.25;99184.00;5110006;28;21212;-58
2022/11/04 06:35:58;;;;;;;0.70;0.70;;;;;;;12.91;79.67;99185.56;5109848;28;20221;-58
2022/11/04 06:38:25;;;;;;;1.20;0.83;;;;;;;13.22;78.46;99180.50;5109704;28;20731;-63
2022/11/04 06:40:52;;;;;;;1.40;1.30;;;;;;;13.56;76.63;99185.47;5109720;28;20225;-63
2022/11/04 06:43:19;;;;;;;1.20;1.10;;;;;;;13.88;76.09;99187.09;5109889;28;20197;-63
2022/11/04 06:45:53;;;;;;;0.57;0.57;;;;;;;14.17;74.38;99195.72;5109993;28;20224;-63
2022/11/04 06:48:20;;;;;;;0.80;0.67;;;;;;;14.47;74.21;99181.16;5109709;28;20201;-62
2022/11/04 06:50:46;;;;;;;1.63;1.00;;;;;;;14.77;71.35;99187.16;5109690;28;20491;-58
2022/11/04 06:53:14;;;;;;;0.70;0.70;;;;;;;15.06;70.88;99182.81;5109677;28;20205;-57
2022/11/04 06:55:41;;;;;;;0.70;0.70;;;;;;;15.34;69.22;99182.94;5109372;28;20226;-57
2022/11/04 06:58:09;;;;;;;1.63;1.30;;;;;;;15.66;68.19;99179.19;5109607;28;20267;-63
2022/11/04 07:00:36;;;;;;;0.70;0.70;;;;;;;15.85;68.20;99173.97;5109795;28;20215;-61
2022/11/04 07:03:02;;;;;;;1.20;1.10;;;;;;;16.06;65.85;99171.97;5109827;28;20197;-63
2022/11/04 07:05:29;;;;;;;1.30;1.10;;;;;;;16.30;66.03;99163.69;5109519;28;20224;-58
2022/11/04 07:07:56;;;;;;;1.30;1.07;;;;;;;16.30;64.54;99170.63;5109900;28;20220;-59
2022/11/04 07:10:24;;;;;;;1.07;0.90;;;;;;;16.30;63.86;99163.69;5109707;28;20773;-57
2022/11/04 07:12:51;;;;;;;1.60;1.10;;;;;;;16.59;63.20;99165.28;5109747;28;20233;-63
2022/11/04 07:15:18;;;;;;;1.33;1.23;;;;;;;16.84;62.46;99171.50;5109841;28;20224;-58
2022/11/04 07:17:44;;;;;;;1.33;1.00;;;;;;;16.83;61.31;99159.53;5109319;28;20209;-63
2022/11/04 07:20:12;;;;;;;2.80;1.33;;;;;;;16.92;61.25;99158.63;5109367;28;20225;-58
2022/11/04 07:22:39;;;;;;;1.40;1.30;;;;;;;17.26;62.23;99160.50;5111839;28;20234;-58
2022/11/04 07:25:06;;;;;;;1.53;1.03;;;;;;;17.65;60.33;99150.53;5113362;28;20213;-57
2022/11/04 07:27:34;;;;;;;1.47;1.37;;;;;;;17.72;57.02;99145.56;5113261;28;20197;-63
2022/11/04 07:30:01;;;;;;;2.10;1.60;;;;;;;17.78;58.59;99139.78;5113202;28;20221;-57
2022/11/04 07:32:28;;;;;;;4.07;2.10;;;;;;;17.76;56.74;99141.69;5113065;28;20293;-63
2022/11/04 07:34:55;;;;;;;1.37;1.27;;;;;;;17.66;58.04;99141.00;5113031;28;20291;-58
2022/11/04 07:37:22;;;;;;;1.73;1.37;;;;;;;17.88;57.15;99144.84;5112948;27;20193;-63
2022/11/04 07:39:49;;;;;;;1.53;1.37;;;;;;;18.31;56.57;99140.44;5113199;28;20220;-58
2022/11/04 07:42:15;;;;;;;1.87;1.53;;;;;;;18.76;54.30;99140.03;5113003;28;20197;-63
2022/11/04 07:44:43;;;;;;;3.27;1.67;;;;;;;18.71;54.06;99137.06;5112667;28;20222;-58
2022/11/04 07:47:10;;;;;;;5.60;2.53;;;;;;;19.22;54.44;99129.13;5112804;28;20614;-63
2022/11/04 07:49:37;;;;;;;2.37;1.73;;;;;;;19.58;51.92;99124.31;5112805;28;20695;-58
2022/11/04 07:52:04;;;;;;;2.83;1.53;;;;;;;19.99;51.17;99116.38;5112947;28;20235;-63
2022/11/04 07:54:31;;;;;;;2.27;1.53;;;;;;;19.82;51.18;99117.44;5112712;28;20662;-58
2022/11/04 07:56:58;;;;;;;2.30;1.37;;;;;;;19.72;51.18;99125.41;5112838;28;20622;-58
2022/11/04 07:59:25;;;;;;;3.10;1.60;;;;;;;19.81;51.25;99113.22;5112673;28;20662;-58
2022/11/04 08:01:53;;;;;;;2.43;1.70;;;;;;;20.02;49.67;99115.25;5112467;28;20588;-63
2022/11/04 08:04:19;;;;;;;3.03;1.80;;;;;;;19.57;50.87;99114.91;5112667;27;20225;-64
2022/11/04 08:06:46;;;;;;;2.47;1.93;;;;;;;20.08;51.32;99104.16;5112430;28;20197;-58
2022/11/04 08:09:13;;;;;;;2.70;1.77;;;;;;;19.57;50.64;99107.13;5112638;28;20642;-63
2022/11/04 08:11:40;;;;;;;2.43;1.80;;;;;;;20.20;51.42;99096.78;5112164;28;20235;-63
2022/11/04 08:14:06;;;;;;;2.00;1.40;;;;;;;20.72;49.46;99098.72;5112310;28;20217;-58
2022/11/04 08:16:33;;;;;;;3.57;2.33;;;;;;;20.88;50.06;99101.13;5112257;28;20198;-63
2022/11/04 08:19:02;;;;;;;6.43;2.67;;;;;;;21.37;48.71;99100.66;5112224;28;20517;-58
2022/11/04 08:21:29;;;;;;;1.90;1.50;;;;;;;21.60;46.85;99104.97;5112289;28;20202;-60
2022/11/04 08:23:56;;;;;;;5.37;1.97;;;;;;;21.96;46.58;99110.19;5112144;28;20571;-58
2022/11/04 08:26:23;;;;;;;2.73;1.67;;;;;;;22.23;45.50;99100.91;5112001;28;20680;-59
2022/11/04 08:28:51;;;;;;;5.83;3.10;;;;;;;22.16;45.20;99099.97;5111825;28;20205;-64
2022/11/04 08:31:21;;;;;;;138.37;40.63;;;;;;;22.63;45.35;99103.03;5111946;28;20232;-64
2022/11/04 08:33:48;;;;;;;48.07;21.93;;;;;;;22.67;43.91;99091.25;5111249;28;20206;-58
2022/11/04 08:36:19;;;;;;;29.27;10.83;;;;;;;22.77;44.25;99092.53;5112250;28;20190;-58
2022/11/04 08:38:46;;;;;;;72.33;28.40;;;;;;;22.65;44.26;99094.03;5111901;28;20205;-63
2022/11/04 08:41:15;;;;;;;69.97;26.57;;;;;;;22.31;44.91;99092.13;5111782;28;20291;-64
2022/11/04 08:43:42;;;;;;;310.23;107.80;;;;;;;22.37;44.09;99089.59;5111464;28;20253;-64
2022/11/04 08:46:11;;;;;;;442.90;163.40;;;;;;;22.46;43.68;99084.28;5111706;28;20200;-58
2022/11/04 08:48:39;;;;;;;9.13;5.63;;;;;;;22.30;44.28;99086.13;5111405;28;20193;-61
2022/11/04 08:51:10;;;;;;;6.17;3.17;;;;;;;22.24;45.00;99073.84;5111605;28;20200;-64
2022/11/04 08:53:38;;;;;;;202.80;51.27;;;;;;;22.71;45.43;99082.06;5111690;28;20204;-59
2022/11/04 08:56:10;;;;;;;13.73;6.38;;;;;;;23.18;43.68;99080.56;5111424;28;20264;-64
2022/11/04 08:58:37;;;;;;;168.05;62.05;;;;;;;23.52;42.24;99079.75;5111460;28;20204;-64
2022/11/04 09:01:05;;;;;;;31.83;12.27;;;;;;;23.94;42.77;99072.69;5111696;28;20196;-64
2022/11/04 09:03:33;;;;;;;9.32;2.83;;;;;;;24.39;41.27;99071.13;5111628;28;20258;-64
2022/11/04 09:06:01;;;;;;;5.13;2.42;;;;;;;24.55;40.08;99069.97;5111137;27;20229;-59
2022/11/04 09:08:27;;;;;;;2.63;2.00;;;;;;;24.20;40.56;99063.28;5111277;28;20206;-64
2022/11/04 09:10:56;;;;;;;3.70;2.15;;;;;;;24.03;40.75;99066.28;5111348;28;20751;-58
2022/11/04 09:13:22;;;;;;;3.50;2.10;;;;;;;23.49;41.77;99051.44;5111438;28;20309;-58
2022/11/04 09:15:49;;;;;;;3.33;2.25;;;;;;;23.31;43.08;99056.38;5111139;28;20650;-58
2022/11/04 09:18:16;;;;;;;5.18;2.15;;;;;;;23.26;42.60;99057.75;5111150;28;20594;-59
2022/11/04 09:20:43;;;;;;;3.63;2.10;;;;;;;23.53;42.05;99060.47;5110916;28;20274;-59
2022/11/04 09:23:10;;;;;;;2.67;2.10;;;;;;;23.25;41.77;99057.94;5111106;28;20591;-59
2022/11/04 09:25:37;;;;;;;4.35;2.47;;;;;;;23.52;41.75;99052.84;5110792;28;20755;-64
2022/11/04 09:28:06;;;;;;;2.83;1.80;;;;;;;23.62;42.14;99048.88;5111064;28;20194;-58
2022/11/04 09:30:33;;;;;;;2.55;2.05;;;;;;;23.66;41.36;99039.63;5110905;28;20217;-58
2022/11/04 09:33:00;;;;;;;3.67;2.00;;;;;;;23.68;41.31;99037.66;5110934;28;20225;-64
2022/11/04 09:35:27;;;;;;;5.13;3.15;;;;;;;23.75;40.87;99031.66;5111008;28;20213;-64
2022/11/04 09:37:54;;;;;;;3.00;2.10;;;;;;;24.07;40.64;99030.91;5110590;28;20240;-59
2022/11/04 09:40:24;;;;;;;2.92;1.88;;;;;;;24.01;40.80;99033.53;5110605;28;20221;-64
2022/11/04 09:43:02;;;;;;;3.38;2.38;;;;;;;24.11;40.60;99026.88;5110787;28;20622;-59
2022/11/04 09:45:32;;;;;;;3.70;2.13;;;;;;;22.55;42.34;99020.59;5110043;27;20732;-63
2022/11/04 09:48:04;;;;;;;3.10;2.20;;;;;;;23.30;42.89;99028.66;5110769;28;20186;-64
2022/11/04 09:50:36;;;;;;;4.57;2.50;;;;;;;22.50;42.73;99022.97;5110563;28;20221;-59
2022/11/04 09:53:08;;;;;;;3.30;2.00;;;;;;;23.26;42.75;99021.22;5110517;27;20241;-64
2022/11/04 09:55:41;;;;;;;3.57;1.70;;;;;;;23.06;42.46;99009.91;5110848;28;20214;-64
2022/11/04 09:58:12;;;;;;;4.20;2.10;;;;;;;23.14;42.27;99001.91;5110251;28;20193;-59
2022/11/04 10:00:44;;;;;;;4.50;2.20;;;;;;;22.77;43.20;99003.88;5110849;28;20288;-59
2022/11/04 10:03:23;;;;;;;3.40;1.90;;;;;;;22.99;43.12;99009.06;5110294;28;20295;-58
2022/11/04 10:06:03;;;;;;;2.97;2.00;;;;;;;23.02;42.26;99001.66;5110286;28;20720;-64
2022/11/04 10:08:54;;;;;;;6.03;2.30;;;;;;;23.35;42.59;99006.22;5110496;28;20387;-59
2022/11/04 10:11:28;;;;;;;4.30;2.20;;;;;;;22.97;42.35;99003.25;5110238;28;20595;-64
2022/11/04 10:14:09;;;;;;;3.63;1.98;;;;;;;22.78;42.96;98989.88;5110086;28;20198;-58
2022/11/04 10:16:52;;;;;;;3.63;2.30;;;;;;;22.00;44.34;98978.66;5110295;28;20196;-65
2022/11/04 10:19:35;;;;;;;2.07;1.60;;;;;;;21.78;44.59;98970.03;5109910;28;20223;-63
2022/11/04 10:22:10;;;;;;;4.73;2.10;;;;;;;21.78;44.92;98964.03;5110259;28;20189;-58
2022/11/04 10:24:42;;;;;;;4.03;2.13;;;;;;;21.37;45.35;98956.81;5110182;28;20615;-59
2022/11/04 10:27:16;;;;;;;5.93;2.47;;;;;;;20.78;46.25;98961.09;5110220;28;20292;-64
2022/11/04 10:29:45;;;;;;;6.97;2.60;;;;;;;20.85;46.93;98955.97;5110079;28;20249;-58
2022/11/04 10:32:17;;;;;;;2.23;1.63;;;;;;;20.96;46.88;98962.50;5110144;28;20613;-58
2022/11/04 10:34:51;;;;;;;2.23;1.63;;;;;;;20.90;46.91;98953.63;5110101;28;20220;-59
2022/11/04 10:37:18;;;;;;;3.33;1.80;;;;;;;20.76;46.19;98951.84;5110428;28;20596;-59
2022/11/04 10:39:46;;;;;;;3.10;2.03;;;;;;;20.48;46.92;98949.84;5110359;28;20231;-58
2022/11/04 10:42:17;;;;;;;2.57;1.90;;;;;;;20.21;47.95;98947.81;5110495;28;20216;-64
2022/11/04 10:44:45;;;;;;;7.23;3.40;;;;;;;20.37;47.89;98947.69;5110182;28;20222;-60
2022/11/04 10:47:26;;;;;;;4.47;2.13;;;;;;;20.61;49.08;98932.88;5110077;28;20195;-58
2022/11/04 10:50:09;;;;;;;2.57;1.57;;;;;;;20.81;46.96;98933.94;5110230;28;20227;-64
2022/11/04 10:52:36;;;;;;;3.80;1.83;;;;;;;20.52;47.39;98930.34;5110765;28;20235;-59
2022/11/04 10:55:11;;;;;;;2.50;1.57;;;;;;;20.32;47.87;98934.41;5110203;28;20225;-64
2022/11/04 10:57:38;;;;;;;2.43;1.63;;;;;;;20.43;48.13;98940.97;5112594;28;20256;-64
2022/11/04 11:00:06;;;;;;;1.87;1.17;;;;;;;20.86;47.17;98929.00;5114131;27;20223;-59
2022/11/04 11:02:46;;;;;;;2.23;1.93;;;;;;;21.05;46.18;98919.81;5113816;28;20650;-64
2022/11/04 11:05:20;;;;;;;3.63;2.23;;;;;;;21.01;46.34;98913.41;5113598;28;20238;-59
2022/11/04 11:07:49;;;;;;;6.23;1.70;;;;;;;21.08;46.60;98918.66;5113689;27;20193;-59
2022/11/04 11:10:18;;;;;;;3.63;2.50;;;;;;;21.34;45.30;98913.75;5113499;28;20221;-64
2022/11/04 11:12:51;;;;;;;2.13;1.60;;;;;;;21.52;45.70;98894.34;5113487;28;20270;-58
2022/11/04 11:15:28;;;;;;;4.00;2.00;;;;;;;21.45;45.96;98902.88;5113918;28;20219;-60
2022/11/04 11:18:10;;;;;;;2.73;1.47;;;;;;;21.55;44.81;98891.38;5113258;28;20192;-64
2022/11/04 11:20:38;;;;;;;2.03;1.57;;;;;;;21.45;45.29;98895.09;5113403;28;20264;-64
2022/11/04 11:23:08;;;;;;;1.77;1.50;;;;;;;21.52;45.31;98891.75;5113553;28;20254;-58
2022/11/04 11:25:37;;;;;;;2.23;1.63;;;;;;;21.31;45.85;98888.13;5113357;28;20213;-59
2022/11/04 11:28:06;;;;;;;3.23;1.67;;;;;;;21.03;46.25;98888.84;5113115;28;20288;-64
2022/11/04 11:30:40;;;;;;;3.20;1.97;;;;;;;20.98;47.33;98880.78;5113251;28;20216;-64
2022/11/04 11:33:20;;;;;;;2.80;1.63;;;;;;;21.21;45.81;98882.41;5113002;28;20228;-63
2022/11/04 11:35:51;;;;;;;3.80;1.67;;;;;;;21.32;45.93;98874.13;5113183;28;20598;-64
2022/11/04 11:38:22;;;;;;;2.83;2.00;;;;;;;21.50;45.44;98870.31;5113102;28;20203;-59
2022/11/04 11:40:51;;;;;;;2.43;1.60;;;;;;;21.47;45.55;98856.69;5112958;28;20219;-64
2022/11/04 11:43:25;;;;;;;2.73;1.73;;;;;;;20.90;46.08;98860.09;5113069;28;20253;-58
2022/11/04 11:45:53;;;;;;;2.70;1.83;;;;;;;20.86;46.70;98850.25;5113088;27;20733;-58
2022/11/04 11:48:33;;;;;;;2.97;1.70;;;;;;;20.83;46.08;98854.00;5112774;28;20286;-63
2022/11/04 11:51:00;;;;;;;1.93;1.77;;;;;;;21.16;46.26;98858.75;5112939;28;20210;-58
2022/11/04 11:53:33;;;;;;;3.67;1.97;;;;;;;21.30;45.66;98864.91;5112743;28;20245;-64
2022/11/04 11:56:12;;;;;;;1.67;1.57;;;;;;;21.27;45.84;98860.09;5112754;28;20249;-64
2022/11/04 11:58:44;;;;;;;3.43;1.93;;;;;;;21.44;45.66;98857.06;5112502;28;20202;-64
2022/11/04 12:01:17;;;;;;;2.90;1.90;;;;;;;21.46;45.48;98859.47;5112716;28;20194;-64
2022/11/04 12:03:46;;;;;;;2.30;1.90;;;;;;;21.34;45.75;98860.94;5112412;28;20198;-59
2022/11/04 12:06:26;;;;;;;2.03;1.40;;;;;;;21.18;46.00;98851.59;5112566;28;20715;-59
2022/11/04 12:09:07;;;;;;;3.67;1.33;;;;;;;20.88;45.85;98840.47;5111465;28;20206;-59
2022/11/04 12:11:44;;;;;;;1.93;1.60;;;;;;;20.89;46.79;98835.09;5112558;28;20601;-64
2022/11/04 12:14:17;;;;;;;2.93;1.70;;;;;;;20.95;47.13;98833.56;5112382;27;20243;-64
2022/11/04 12:16:54;;;;;;;3.97;2.07;;;;;;;20.95;46.74;98836.16;5112353;28;20204;-59
2022/11/04 12:19:39;;;;;;;3.30;1.70;;;;;;;20.71;48.05;98834.66;5112256;28;20218;-63